sensor_id;sensor_type;location;lat;lon;timestamp;temperature;humidity
26707;DHT22;14319;49.422;10.934;2023-07-09T00:00:37;21.70;60.80
26707;DHT22;14319;49.422;10.934;2023-07-09T00:02:37;21.70;60.50
26707;DHT22;14319;49.422;10.934;2023-07-09T00:04:38;21.80;60.60
26707;DHT22;14319;49.422;10.934;2023-07-09T00:06:40;21.70;59.90
26707;DHT22;14319;49.422;10.934;2023-07-09T00:08:43;21.70;60.00
26707;DHT22;14319;49.422;10.934;2023-07-09T00:10:44;21.70;59.70
26707;DHT22;14319;49.422;10.934;2023-07-09T00:12:46;21.60;59.60
26707;DHT22;14319;49.422;10.934;2023-07-09T00:14:47;21.60;60.00
26707;DHT22;14319;49.422;10.934;2023-07-09T00:16:48;21.60;60.30
26707;DHT22;14319;49.422;10.934;2023-07-09T00:18:48;21.50;60.50
26707;DHT22;14319;49.422;10.934;2023-07-09T00:20:49;21.50;60.60
26707;DHT22;14319;49.422;10.934;2023-07-09T00:22:50;21.50;60.90
26707;DHT22;14319;49.422;10.934;2023-07-09T00:24:52;21.50;60.70
26707;DHT22;14319;49.422;10.934;2023-07-09T00:26:57;21.50;60.00
26707;DHT22;14319;49.422;10.934;2023-07-09T00:28:58;21.40;59.70
26707;DHT22;14319;49.422;10.934;2023-07-09T00:30:59;21.40;60.20
26707;DHT22;14319;49.422;10.934;2023-07-09T00:33:00;21.40;60.80
26707;DHT22;14319;49.422;10.934;2023-07-09T00:35:01;21.30;61.30
26707;DHT22;14319;49.422;10.934;2023-07-09T00:37:10;21.30;61.50
26707;DHT22;14319;49.422;10.934;2023-07-09T00:39:17;21.30;61.50
26707;DHT22;14319;49.422;10.934;2023-07-09T00:41:21;21.20;61.50
26707;DHT22;14319;49.422;10.934;2023-07-09T00:43:22;21.30;61.70
26707;DHT22;14319;49.422;10.934;2023-07-09T00:45:25;21.20;60.80
26707;DHT22;14319;49.422;10.934;2023-07-09T00:47:43;21.10;61.50
26707;DHT22;14319;49.422;10.934;2023-07-09T00:49:47;21.00;61.30
26707;DHT22;14319;49.422;10.934;2023-07-09T00:51:48;21.00;61.80
26707;DHT22;14319;49.422;10.934;2023-07-09T00:53:55;20.70;62.10
26707;DHT22;14319;49.422;10.934;2023-07-09T00:56:02;20.50;62.70
26707;DHT22;14319;49.422;10.934;2023-07-09T00:58:09;20.40;63.10
26707;DHT22;14319;49.422;10.934;2023-07-09T01:00:16;20.30;63.20
26707;DHT22;14319;49.422;10.934;2023-07-09T01:02:17;20.40;63.60
26707;DHT22;14319;49.422;10.934;2023-07-09T01:04:23;20.50;63.70
26707;DHT22;14319;49.422;10.934;2023-07-09T01:06:30;20.70;63.40
26707;DHT22;14319;49.422;10.934;2023-07-09T01:08:35;20.70;63.20
26707;DHT22;14319;49.422;10.934;2023-07-09T01:10:36;20.80;63.20
26707;DHT22;14319;49.422;10.934;2023-07-09T01:12:37;20.70;63.00
26707;DHT22;14319;49.422;10.934;2023-07-09T01:14:38;20.60;63.10
26707;DHT22;14319;49.422;10.934;2023-07-09T01:16:42;20.50;63.50
26707;DHT22;14319;49.422;10.934;2023-07-09T01:18:44;20.60;63.70
26707;DHT22;14319;49.422;10.934;2023-07-09T01:20:45;20.60;63.80
26707;DHT22;14319;49.422;10.934;2023-07-09T01:22:51;20.70;63.90
26707;DHT22;14319;49.422;10.934;2023-07-09T01:25:01;20.70;63.80
26707;DHT22;14319;49.422;10.934;2023-07-09T01:27:03;20.80;63.70
26707;DHT22;14319;49.422;10.934;2023-07-09T01:29:03;20.60;64.70
26707;DHT22;14319;49.422;10.934;2023-07-09T01:31:04;20.30;65.70
26707;DHT22;14319;49.422;10.934;2023-07-09T01:33:08;20.30;65.80
26707;DHT22;14319;49.422;10.934;2023-07-09T01:35:10;20.30;65.30
26707;DHT22;14319;49.422;10.934;2023-07-09T01:37:11;20.30;65.20
26707;DHT22;14319;49.422;10.934;2023-07-09T01:39:12;20.10;64.40
26707;DHT22;14319;49.422;10.934;2023-07-09T01:41:13;20.00;64.90
26707;DHT22;14319;49.422;10.934;2023-07-09T01:43:14;19.70;65.00
26707;DHT22;14319;49.422;10.934;2023-07-09T01:45:15;19.90;65.60
26707;DHT22;14319;49.422;10.934;2023-07-09T01:47:16;20.00;65.20
26707;DHT22;14319;49.422;10.934;2023-07-09T01:49:17;20.00;64.50
26707;DHT22;14319;49.422;10.934;2023-07-09T01:51:18;20.10;64.40
26707;DHT22;14319;49.422;10.934;2023-07-09T01:53:23;20.10;64.40
26707;DHT22;14319;49.422;10.934;2023-07-09T01:55:25;20.20;64.60
26707;DHT22;14319;49.422;10.934;2023-07-09T01:57:28;20.20;64.80
26707;DHT22;14319;49.422;10.934;2023-07-09T01:59:35;20.20;64.90
26707;DHT22;14319;49.422;10.934;2023-07-09T02:01:41;20.20;64.90
26707;DHT22;14319;49.422;10.934;2023-07-09T02:03:42;20.20;64.80
26707;DHT22;14319;49.422;10.934;2023-07-09T02:05:44;20.20;64.40
26707;DHT22;14319;49.422;10.934;2023-07-09T02:07:46;20.20;64.50
26707;DHT22;14319;49.422;10.934;2023-07-09T02:09:47;20.20;64.60
26707;DHT22;14319;49.422;10.934;2023-07-09T02:11:48;20.20;64.60
26707;DHT22;14319;49.422;10.934;2023-07-09T02:13:48;20.10;65.10
26707;DHT22;14319;49.422;10.934;2023-07-09T02:15:49;20.00;65.30
26707;DHT22;14319;49.422;10.934;2023-07-09T02:17:49;19.90;65.70
26707;DHT22;14319;49.422;10.934;2023-07-09T02:19:50;20.00;65.70
26707;DHT22;14319;49.422;10.934;2023-07-09T02:21:50;20.00;65.70
26707;DHT22;14319;49.422;10.934;2023-07-09T02:23:51;20.00;65.60
26707;DHT22;14319;49.422;10.934;2023-07-09T02:25:52;20.00;65.80
26707;DHT22;14319;49.422;10.934;2023-07-09T02:27:53;20.00;65.70
26707;DHT22;14319;49.422;10.934;2023-07-09T02:29:54;19.90;66.30
26707;DHT22;14319;49.422;10.934;2023-07-09T02:31:57;19.90;66.40
26707;DHT22;14319;49.422;10.934;2023-07-09T02:33:59;19.90;66.30
26707;DHT22;14319;49.422;10.934;2023-07-09T02:35:59;19.80;66.30
26707;DHT22;14319;49.422;10.934;2023-07-09T02:38:00;19.60;66.60
26707;DHT22;14319;49.422;10.934;2023-07-09T02:40:01;19.50;66.70
26707;DHT22;14319;49.422;10.934;2023-07-09T02:42:02;19.50;67.20
26707;DHT22;14319;49.422;10.934;2023-07-09T02:44:03;19.60;67.00
26707;DHT22;14319;49.422;10.934;2023-07-09T02:46:04;19.70;67.00
26707;DHT22;14319;49.422;10.934;2023-07-09T02:48:05;19.70;66.90
26707;DHT22;14319;49.422;10.934;2023-07-09T02:50:11;19.80;66.60
26707;DHT22;14319;49.422;10.934;2023-07-09T02:52:12;19.80;66.40
26707;DHT22;14319;49.422;10.934;2023-07-09T02:54:12;19.80;66.40
26707;DHT22;14319;49.422;10.934;2023-07-09T02:56:13;19.70;66.90
26707;DHT22;14319;49.422;10.934;2023-07-09T02:58:13;19.70;66.80
26707;DHT22;14319;49.422;10.934;2023-07-09T03:00:14;19.70;66.30
26707;DHT22;14319;49.422;10.934;2023-07-09T03:02:15;19.50;66.80
26707;DHT22;14319;49.422;10.934;2023-07-09T03:04:16;19.50;67.10
26707;DHT22;14319;49.422;10.934;2023-07-09T03:06:16;19.50;67.20
26707;DHT22;14319;49.422;10.934;2023-07-09T03:08:17;19.60;67.30
26707;DHT22;14319;49.422;10.934;2023-07-09T03:10:18;19.50;67.40
26707;DHT22;14319;49.422;10.934;2023-07-09T03:12:18;19.50;67.40
26707;DHT22;14319;49.422;10.934;2023-07-09T03:14:19;19.50;67.80
26707;DHT22;14319;49.422;10.934;2023-07-09T03:16:19;19.50;67.30
26707;DHT22;14319;49.422;10.934;2023-07-09T03:18:20;19.50;67.30
26707;DHT22;14319;49.422;10.934;2023-07-09T03:20:21;19.50;67.40
26707;DHT22;14319;49.422;10.934;2023-07-09T03:22:21;19.50;67.30
26707;DHT22;14319;49.422;10.934;2023-07-09T03:24:22;19.40;66.80
26707;DHT22;14319;49.422;10.934;2023-07-09T03:26:23;19.40;66.60
26707;DHT22;14319;49.422;10.934;2023-07-09T03:28:26;19.40;66.70
26707;DHT22;14319;49.422;10.934;2023-07-09T03:30:26;19.30;67.00
26707;DHT22;14319;49.422;10.934;2023-07-09T03:32:27;19.30;67.40
26707;DHT22;14319;49.422;10.934;2023-07-09T03:34:28;19.30;67.60
26707;DHT22;14319;49.422;10.934;2023-07-09T03:36:28;19.40;67.40
26707;DHT22;14319;49.422;10.934;2023-07-09T03:38:29;19.30;67.40
26707;DHT22;14319;49.422;10.934;2023-07-09T03:40:30;19.30;67.70
26707;DHT22;14319;49.422;10.934;2023-07-09T03:42:31;19.30;67.80
26707;DHT22;14319;49.422;10.934;2023-07-09T03:44:32;19.30;67.60
26707;DHT22;14319;49.422;10.934;2023-07-09T03:46:32;19.20;66.90
26707;DHT22;14319;49.422;10.934;2023-07-09T03:48:33;19.20;67.50
26707;DHT22;14319;49.422;10.934;2023-07-09T03:50:33;19.10;68.00
26707;DHT22;14319;49.422;10.934;2023-07-09T03:52:34;19.10;68.50
26707;DHT22;14319;49.422;10.934;2023-07-09T03:54:35;19.10;68.00
26707;DHT22;14319;49.422;10.934;2023-07-09T03:56:35;19.00;68.70
26707;DHT22;14319;49.422;10.934;2023-07-09T03:58:37;19.00;68.50
26707;DHT22;14319;49.422;10.934;2023-07-09T04:00:38;19.10;69.00
26707;DHT22;14319;49.422;10.934;2023-07-09T04:02:40;19.10;69.00
26707;DHT22;14319;49.422;10.934;2023-07-09T04:04:40;19.10;69.10
26707;DHT22;14319;49.422;10.934;2023-07-09T04:06:41;19.10;69.00
26707;DHT22;14319;49.422;10.934;2023-07-09T04:08:41;19.10;68.90
26707;DHT22;14319;49.422;10.934;2023-07-09T04:10:42;19.10;69.10
26707;DHT22;14319;49.422;10.934;2023-07-09T04:12:43;19.10;69.60
26707;DHT22;14319;49.422;10.934;2023-07-09T04:14:43;19.10;70.00
26707;DHT22;14319;49.422;10.934;2023-07-09T04:16:44;19.00;69.80
26707;DHT22;14319;49.422;10.934;2023-07-09T04:18:44;18.90;70.30
26707;DHT22;14319;49.422;10.934;2023-07-09T04:20:49;19.00;70.60
26707;DHT22;14319;49.422;10.934;2023-07-09T04:22:50;19.00;70.40
26707;DHT22;14319;49.422;10.934;2023-07-09T04:24:51;19.00;70.50
26707;DHT22;14319;49.422;10.934;2023-07-09T04:26:52;19.00;70.60
26707;DHT22;14319;49.422;10.934;2023-07-09T04:28:56;19.00;70.50
26707;DHT22;14319;49.422;10.934;2023-07-09T04:30:57;19.00;70.70
26707;DHT22;14319;49.422;10.934;2023-07-09T04:32:57;18.90;71.20
26707;DHT22;14319;49.422;10.934;2023-07-09T04:34:58;18.80;71.80
26707;DHT22;14319;49.422;10.934;2023-07-09T04:36:59;18.70;72.40
26707;DHT22;14319;49.422;10.934;2023-07-09T04:38:59;18.70;72.50
26707;DHT22;14319;49.422;10.934;2023-07-09T04:41:00;18.80;72.60
26707;DHT22;14319;49.422;10.934;2023-07-09T04:43:01;18.80;72.60
26707;DHT22;14319;49.422;10.934;2023-07-09T04:45:01;18.90;72.90
26707;DHT22;14319;49.422;10.934;2023-07-09T04:47:02;19.00;72.40
26707;DHT22;14319;49.422;10.934;2023-07-09T04:49:03;19.00;72.30
26707;DHT22;14319;49.422;10.934;2023-07-09T04:51:04;19.00;73.30
26707;DHT22;14319;49.422;10.934;2023-07-09T04:53:04;18.70;74.40
26707;DHT22;14319;49.422;10.934;2023-07-09T04:55:05;18.40;76.20
26707;DHT22;14319;49.422;10.934;2023-07-09T04:57:08;18.50;76.40
26707;DHT22;14319;49.422;10.934;2023-07-09T04:59:08;18.50;76.50
26707;DHT22;14319;49.422;10.934;2023-07-09T05:01:09;18.30;76.50
26707;DHT22;14319;49.422;10.934;2023-07-09T05:03:09;18.10;77.90
26707;DHT22;14319;49.422;10.934;2023-07-09T05:05:10;18.20;78.20
26707;DHT22;14319;49.422;10.934;2023-07-09T05:07:12;18.20;78.70
26707;DHT22;14319;49.422;10.934;2023-07-09T05:09:13;18.20;78.30
26707;DHT22;14319;49.422;10.934;2023-07-09T05:11:14;18.30;78.40
26707;DHT22;14319;49.422;10.934;2023-07-09T05:13:14;18.20;78.60
26707;DHT22;14319;49.422;10.934;2023-07-09T05:15:16;18.10;79.70
26707;DHT22;14319;49.422;10.934;2023-07-09T05:17:16;18.10;79.80
26707;DHT22;14319;49.422;10.934;2023-07-09T05:19:17;18.00;80.10
26707;DHT22;14319;49.422;10.934;2023-07-09T05:21:17;17.90;80.40
26707;DHT22;14319;49.422;10.934;2023-07-09T05:23:18;17.80;80.20
26707;DHT22;14319;49.422;10.934;2023-07-09T05:25:19;17.80;80.30
26707;DHT22;14319;49.422;10.934;2023-07-09T05:27:19;17.80;80.30
26707;DHT22;14319;49.422;10.934;2023-07-09T05:29:20;17.80;80.50
26707;DHT22;14319;49.422;10.934;2023-07-09T05:31:20;17.90;80.00
26707;DHT22;14319;49.422;10.934;2023-07-09T05:33:21;18.10;79.90
26707;DHT22;14319;49.422;10.934;2023-07-09T05:35:22;18.20;79.00
26707;DHT22;14319;49.422;10.934;2023-07-09T05:37:23;18.40;78.20
26707;DHT22;14319;49.422;10.934;2023-07-09T05:39:23;18.50;78.60
26707;DHT22;14319;49.422;10.934;2023-07-09T05:41:24;18.60;77.80
26707;DHT22;14319;49.422;10.934;2023-07-09T05:43:24;18.70;78.30
26707;DHT22;14319;49.422;10.934;2023-07-09T05:45:25;18.80;77.70
26707;DHT22;14319;49.422;10.934;2023-07-09T05:47:26;18.80;78.00
26707;DHT22;14319;49.422;10.934;2023-07-09T05:49:26;18.80;78.40
26707;DHT22;14319;49.422;10.934;2023-07-09T05:51:27;18.90;78.40
26707;DHT22;14319;49.422;10.934;2023-07-09T05:53:28;18.90;78.40
26707;DHT22;14319;49.422;10.934;2023-07-09T05:55:28;19.00;78.10
26707;DHT22;14319;49.422;10.934;2023-07-09T05:57:29;19.10;77.50
26707;DHT22;14319;49.422;10.934;2023-07-09T05:59:29;19.20;78.10
26707;DHT22;14319;49.422;10.934;2023-07-09T06:01:30;19.30;77.10
26707;DHT22;14319;49.422;10.934;2023-07-09T06:03:30;19.30;77.10
26707;DHT22;14319;49.422;10.934;2023-07-09T06:05:31;19.40;76.60
26707;DHT22;14319;49.422;10.934;2023-07-09T06:07:32;19.50;75.90
26707;DHT22;14319;49.422;10.934;2023-07-09T06:09:32;19.50;76.00
26707;DHT22;14319;49.422;10.934;2023-07-09T06:11:33;19.60;75.90
26707;DHT22;14319;49.422;10.934;2023-07-09T06:13:34;19.70;75.80
26707;DHT22;14319;49.422;10.934;2023-07-09T06:15:35;19.80;76.40
26707;DHT22;14319;49.422;10.934;2023-07-09T06:17:35;19.80;75.60
26707;DHT22;14319;49.422;10.934;2023-07-09T06:19:36;19.90;75.50
26707;DHT22;14319;49.422;10.934;2023-07-09T06:21:39;20.00;75.60
26707;DHT22;14319;49.422;10.934;2023-07-09T06:23:39;20.00;75.50
26707;DHT22;14319;49.422;10.934;2023-07-09T06:25:40;20.00;75.30
26707;DHT22;14319;49.422;10.934;2023-07-09T06:27:40;20.10;75.20
26707;DHT22;14319;49.422;10.934;2023-07-09T06:29:41;20.10;75.50
26707;DHT22;14319;49.422;10.934;2023-07-09T06:31:42;20.20;75.70
26707;DHT22;14319;49.422;10.934;2023-07-09T06:33:43;20.20;76.00
26707;DHT22;14319;49.422;10.934;2023-07-09T06:35:59;20.40;76.00
26707;DHT22;14319;49.422;10.934;2023-07-09T06:38:00;20.50;74.80
26707;DHT22;14319;49.422;10.934;2023-07-09T06:40:01;20.60;74.80
26707;DHT22;14319;49.422;10.934;2023-07-09T06:42:03;20.70;75.00
26707;DHT22;14319;49.422;10.934;2023-07-09T06:44:22;20.80;74.60
26707;DHT22;14319;49.422;10.934;2023-07-09T06:46:26;20.80;74.70
26707;DHT22;14319;49.422;10.934;2023-07-09T06:48:28;20.90;74.90
26707;DHT22;14319;49.422;10.934;2023-07-09T06:50:29;21.00;75.10
26707;DHT22;14319;49.422;10.934;2023-07-09T06:52:33;21.10;74.20
26707;DHT22;14319;49.422;10.934;2023-07-09T06:54:33;21.10;74.30
26707;DHT22;14319;49.422;10.934;2023-07-09T06:56:34;21.40;73.90
26707;DHT22;14319;49.422;10.934;2023-07-09T06:58:36;21.50;73.60
26707;DHT22;14319;49.422;10.934;2023-07-09T07:00:37;21.50;73.00
26707;DHT22;14319;49.422;10.934;2023-07-09T07:02:38;21.60;72.90
26707;DHT22;14319;49.422;10.934;2023-07-09T07:04:38;21.60;72.20
26707;DHT22;14319;49.422;10.934;2023-07-09T07:06:39;21.80;72.00
26707;DHT22;14319;49.422;10.934;2023-07-09T07:08:40;21.90;72.60
26707;DHT22;14319;49.422;10.934;2023-07-09T07:10:41;21.80;72.80
26707;DHT22;14319;49.422;10.934;2023-07-09T07:12:44;22.00;71.40
26707;DHT22;14319;49.422;10.934;2023-07-09T07:14:45;22.10;71.90
26707;DHT22;14319;49.422;10.934;2023-07-09T07:16:45;22.30;71.10
26707;DHT22;14319;49.422;10.934;2023-07-09T07:18:46;22.70;70.00
26707;DHT22;14319;49.422;10.934;2023-07-09T07:20:46;22.80;69.40
26707;DHT22;14319;49.422;10.934;2023-07-09T07:22:47;23.10;68.50
26707;DHT22;14319;49.422;10.934;2023-07-09T07:24:48;23.10;69.00
26707;DHT22;14319;49.422;10.934;2023-07-09T07:26:48;23.10;68.70
26707;DHT22;14319;49.422;10.934;2023-07-09T07:28:49;23.30;68.50
26707;DHT22;14319;49.422;10.934;2023-07-09T07:31:05;23.30;68.20
26707;DHT22;14319;49.422;10.934;2023-07-09T07:33:07;23.40;67.40
26707;DHT22;14319;49.422;10.934;2023-07-09T07:35:08;23.50;67.50
26707;DHT22;14319;49.422;10.934;2023-07-09T07:37:09;23.50;66.70
26707;DHT22;14319;49.422;10.934;2023-07-09T07:39:10;23.60;64.60
26707;DHT22;14319;49.422;10.934;2023-07-09T07:41:11;23.60;66.00
26707;DHT22;14319;49.422;10.934;2023-07-09T07:43:12;23.70;63.90
26707;DHT22;14319;49.422;10.934;2023-07-09T07:45:12;23.90;63.10
26707;DHT22;14319;49.422;10.934;2023-07-09T07:47:13;24.10;61.40
26707;DHT22;14319;49.422;10.934;2023-07-09T07:49:14;24.00;61.50
26707;DHT22;14319;49.422;10.934;2023-07-09T07:51:14;24.00;59.70
26707;DHT22;14319;49.422;10.934;2023-07-09T07:53:15;24.40;60.00
26707;DHT22;14319;49.422;10.934;2023-07-09T07:55:16;24.50;60.20
26707;DHT22;14319;49.422;10.934;2023-07-09T07:57:18;24.60;59.40
26707;DHT22;14319;49.422;10.934;2023-07-09T07:59:19;24.50;59.50
26707;DHT22;14319;49.422;10.934;2023-07-09T08:01:20;24.50;60.80
26707;DHT22;14319;49.422;10.934;2023-07-09T08:03:20;24.50;59.20
26707;DHT22;14319;49.422;10.934;2023-07-09T08:05:21;24.40;60.20
26707;DHT22;14319;49.422;10.934;2023-07-09T08:07:23;24.50;59.20
26707;DHT22;14319;49.422;10.934;2023-07-09T08:09:24;24.60;58.00
26707;DHT22;14319;49.422;10.934;2023-07-09T08:11:26;24.70;58.50
26707;DHT22;14319;49.422;10.934;2023-07-09T08:13:28;24.70;59.10
26707;DHT22;14319;49.422;10.934;2023-07-09T08:15:29;24.50;58.70
26707;DHT22;14319;49.422;10.934;2023-07-09T08:17:29;24.60;59.30
26707;DHT22;14319;49.422;10.934;2023-07-09T08:19:31;24.50;60.60
26707;DHT22;14319;49.422;10.934;2023-07-09T08:21:32;24.50;58.30
26707;DHT22;14319;49.422;10.934;2023-07-09T08:23:33;24.60;59.90
26707;DHT22;14319;49.422;10.934;2023-07-09T08:25:33;24.50;59.30
26707;DHT22;14319;49.422;10.934;2023-07-09T08:27:34;24.50;61.30
26707;DHT22;14319;49.422;10.934;2023-07-09T08:29:35;24.60;59.50
26707;DHT22;14319;49.422;10.934;2023-07-09T08:31:36;24.60;59.90
26707;DHT22;14319;49.422;10.934;2023-07-09T08:33:36;24.70;58.50
26707;DHT22;14319;49.422;10.934;2023-07-09T08:35:37;24.90;58.00
26707;DHT22;14319;49.422;10.934;2023-07-09T08:37:38;25.00;58.80
26707;DHT22;14319;49.422;10.934;2023-07-09T08:39:38;25.00;59.30
26707;DHT22;14319;49.422;10.934;2023-07-09T08:41:43;25.10;58.40
26707;DHT22;14319;49.422;10.934;2023-07-09T08:44:01;25.20;54.60
26707;DHT22;14319;49.422;10.934;2023-07-09T08:48:33;26.00;54.10
26707;DHT22;14319;49.422;10.934;2023-07-09T08:50:40;26.60;52.50
26707;DHT22;14319;49.422;10.934;2023-07-09T08:52:44;26.50;53.30
26707;DHT22;14319;49.422;10.934;2023-07-09T08:54:46;26.40;54.20
26707;DHT22;14319;49.422;10.934;2023-07-09T08:56:48;26.20;54.10
26707;DHT22;14319;49.422;10.934;2023-07-09T08:58:50;26.10;53.50
26707;DHT22;14319;49.422;10.934;2023-07-09T09:00:56;26.10;53.30
26707;DHT22;14319;49.422;10.934;2023-07-09T09:03:01;26.40;52.30
26707;DHT22;14319;49.422;10.934;2023-07-09T09:05:04;26.40;52.50
26707;DHT22;14319;49.422;10.934;2023-07-09T09:07:16;26.30;52.50
26707;DHT22;14319;49.422;10.934;2023-07-09T09:13:54;26.30;52.20
26707;DHT22;14319;49.422;10.934;2023-07-09T09:15:56;26.20;52.00
26707;DHT22;14319;49.422;10.934;2023-07-09T09:18:19;26.30;52.80
26707;DHT22;14319;49.422;10.934;2023-07-09T09:20:21;26.20;52.80
26707;DHT22;14319;49.422;10.934;2023-07-09T09:23:16;26.20;52.70
26707;DHT22;14319;49.422;10.934;2023-07-09T09:26:57;26.60;50.70
26707;DHT22;14319;49.422;10.934;2023-07-09T09:28:59;26.50;53.60
26707;DHT22;14319;49.422;10.934;2023-07-09T09:30:59;26.60;51.70
26707;DHT22;14319;49.422;10.934;2023-07-09T09:33:02;26.60;51.10
26707;DHT22;14319;49.422;10.934;2023-07-09T09:35:14;26.60;52.50
26707;DHT22;14319;49.422;10.934;2023-07-09T09:37:30;26.40;51.60
26707;DHT22;14319;49.422;10.934;2023-07-09T09:39:31;26.50;50.80
26707;DHT22;14319;49.422;10.934;2023-07-09T09:41:36;26.50;51.90
26707;DHT22;14319;49.422;10.934;2023-07-09T09:43:37;26.60;49.00
26707;DHT22;14319;49.422;10.934;2023-07-09T09:45:39;27.00;47.60
26707;DHT22;14319;49.422;10.934;2023-07-09T09:47:40;27.10;47.90
26707;DHT22;14319;49.422;10.934;2023-07-09T09:49:41;27.40;47.40
26707;DHT22;14319;49.422;10.934;2023-07-09T09:51:45;27.50;48.20
26707;DHT22;14319;49.422;10.934;2023-07-09T09:53:51;27.50;47.10
26707;DHT22;14319;49.422;10.934;2023-07-09T09:55:53;27.50;47.00
26707;DHT22;14319;49.422;10.934;2023-07-09T09:57:55;27.40;48.40
26707;DHT22;14319;49.422;10.934;2023-07-09T09:59:58;27.30;49.30
26707;DHT22;14319;49.422;10.934;2023-07-09T10:02:01;27.30;48.50
26707;DHT22;14319;49.422;10.934;2023-07-09T10:04:04;27.30;49.70
26707;DHT22;14319;49.422;10.934;2023-07-09T10:06:19;27.20;49.90
26707;DHT22;14319;49.422;10.934;2023-07-09T10:08:54;27.20;49.20
26707;DHT22;14319;49.422;10.934;2023-07-09T10:13:30;27.00;48.30
26707;DHT22;14319;49.422;10.934;2023-07-09T10:16:41;27.40;48.20
26707;DHT22;14319;49.422;10.934;2023-07-09T10:18:32;27.80;47.10
26707;DHT22;14319;49.422;10.934;2023-07-09T10:20:56;28.00;48.80
26707;DHT22;14319;49.422;10.934;2023-07-09T10:23:29;27.80;48.30
26707;DHT22;14319;49.422;10.934;2023-07-09T10:25:40;27.60;49.60
26707;DHT22;14319;49.422;10.934;2023-07-09T10:32:53;27.90;45.10
26707;DHT22;14319;49.422;10.934;2023-07-09T10:35:15;28.00;44.50
26707;DHT22;14319;49.422;10.934;2023-07-09T10:39:50;28.30;44.80
26707;DHT22;14319;49.422;10.934;2023-07-09T10:41:55;28.40;44.60
26707;DHT22;14319;49.422;10.934;2023-07-09T10:44:04;28.40;45.20
26707;DHT22;14319;49.422;10.934;2023-07-09T10:46:32;28.20;46.40
26707;DHT22;14319;49.422;10.934;2023-07-09T10:48:39;28.00;44.50
26707;DHT22;14319;49.422;10.934;2023-07-09T10:50:42;28.40;42.60
26707;DHT22;14319;49.422;10.934;2023-07-09T10:52:46;28.70;42.70
26707;DHT22;14319;49.422;10.934;2023-07-09T10:55:08;28.50;42.80
26707;DHT22;14319;49.422;10.934;2023-07-09T10:57:24;28.50;41.90
26707;DHT22;14319;49.422;10.934;2023-07-09T10:59:28;28.20;44.80
26707;DHT22;14319;49.422;10.934;2023-07-09T11:01:37;28.00;43.90
26707;DHT22;14319;49.422;10.934;2023-07-09T11:03:48;28.00;43.60
26707;DHT22;14319;49.422;10.934;2023-07-09T11:05:50;27.80;46.20
26707;DHT22;14319;49.422;10.934;2023-07-09T11:10:05;27.60;43.70
26707;DHT22;14319;49.422;10.934;2023-07-09T11:12:18;27.90;43.50
26707;DHT22;14319;49.422;10.934;2023-07-09T11:14:28;28.00;46.30
26707;DHT22;14319;49.422;10.934;2023-07-09T11:16:36;28.00;46.50
26707;DHT22;14319;49.422;10.934;2023-07-09T11:18:39;27.90;46.40
26707;DHT22;14319;49.422;10.934;2023-07-09T11:20:44;27.90;47.20
26707;DHT22;14319;49.422;10.934;2023-07-09T11:22:52;28.00;45.80
26707;DHT22;14319;49.422;10.934;2023-07-09T11:25:14;28.10;45.80
26707;DHT22;14319;49.422;10.934;2023-07-09T11:27:27;28.20;46.20
26707;DHT22;14319;49.422;10.934;2023-07-09T11:29:28;28.20;44.50
26707;DHT22;14319;49.422;10.934;2023-07-09T11:31:37;28.30;45.60
26707;DHT22;14319;49.422;10.934;2023-07-09T11:33:46;28.30;45.30
26707;DHT22;14319;49.422;10.934;2023-07-09T11:35:50;28.30;45.20
26707;DHT22;14319;49.422;10.934;2023-07-09T11:37:52;28.40;45.10
26707;DHT22;14319;49.422;10.934;2023-07-09T11:39:53;28.40;45.30
26707;DHT22;14319;49.422;10.934;2023-07-09T11:41:54;28.50;44.00
26707;DHT22;14319;49.422;10.934;2023-07-09T11:46:23;28.40;45.30
26707;DHT22;14319;49.422;10.934;2023-07-09T11:48:29;28.40;44.50
26707;DHT22;14319;49.422;10.934;2023-07-09T11:50:39;28.40;44.40
26707;DHT22;14319;49.422;10.934;2023-07-09T11:52:55;28.40;45.30
26707;DHT22;14319;49.422;10.934;2023-07-09T11:54:56;28.40;45.00
26707;DHT22;14319;49.422;10.934;2023-07-09T11:56:59;28.40;45.70
26707;DHT22;14319;49.422;10.934;2023-07-09T11:59:01;28.40;45.30
26707;DHT22;14319;49.422;10.934;2023-07-09T12:01:12;28.40;44.80
26707;DHT22;14319;49.422;10.934;2023-07-09T12:03:26;28.40;44.90
26707;DHT22;14319;49.422;10.934;2023-07-09T12:05:29;28.50;43.60
26707;DHT22;14319;49.422;10.934;2023-07-09T12:07:30;28.70;42.00
26707;DHT22;14319;49.422;10.934;2023-07-09T12:09:36;28.70;44.80
26707;DHT22;14319;49.422;10.934;2023-07-09T12:11:44;28.80;43.80
26707;DHT22;14319;49.422;10.934;2023-07-09T12:13:45;28.80;41.60
26707;DHT22;14319;49.422;10.934;2023-07-09T12:15:46;29.00;43.50
26707;DHT22;14319;49.422;10.934;2023-07-09T12:18:01;29.00;43.40
26707;DHT22;14319;49.422;10.934;2023-07-09T12:20:04;29.00;44.00
26707;DHT22;14319;49.422;10.934;2023-07-09T12:22:09;29.20;41.00
26707;DHT22;14319;49.422;10.934;2023-07-09T12:24:35;29.20;44.20
26707;DHT22;14319;49.422;10.934;2023-07-09T12:26:36;29.00;42.30
26707;DHT22;14319;49.422;10.934;2023-07-09T12:28:37;29.10;44.20
26707;DHT22;14319;49.422;10.934;2023-07-09T12:30:37;29.10;42.90
26707;DHT22;14319;49.422;10.934;2023-07-09T12:32:46;29.20;39.80
26707;DHT22;14319;49.422;10.934;2023-07-09T12:34:50;29.10;43.30
26707;DHT22;14319;49.422;10.934;2023-07-09T12:36:53;29.30;39.30
26707;DHT22;14319;49.422;10.934;2023-07-09T12:39:00;29.60;38.90
26707;DHT22;14319;49.422;10.934;2023-07-09T12:41:03;29.70;39.60
26707;DHT22;14319;49.422;10.934;2023-07-09T12:43:04;29.80;39.50
26707;DHT22;14319;49.422;10.934;2023-07-09T12:45:08;29.90;39.70
26707;DHT22;14319;49.422;10.934;2023-07-09T12:47:15;30.00;39.50
26707;DHT22;14319;49.422;10.934;2023-07-09T12:49:25;30.10;38.20
26707;DHT22;14319;49.422;10.934;2023-07-09T12:51:28;30.00;40.90
26707;DHT22;14319;49.422;10.934;2023-07-09T12:53:29;29.80;41.40
26707;DHT22;14319;49.422;10.934;2023-07-09T12:55:40;30.00;38.90
26707;DHT22;14319;49.422;10.934;2023-07-09T12:57:41;30.10;40.40
26707;DHT22;14319;49.422;10.934;2023-07-09T12:59:42;30.40;38.30
26707;DHT22;14319;49.422;10.934;2023-07-09T13:01:50;30.50;39.40
26707;DHT22;14319;49.422;10.934;2023-07-09T13:03:55;30.30;40.90
26707;DHT22;14319;49.422;10.934;2023-07-09T13:05:59;30.30;37.30
26707;DHT22;14319;49.422;10.934;2023-07-09T13:08:01;30.30;38.20
26707;DHT22;14319;49.422;10.934;2023-07-09T13:10:16;30.20;41.00